createdAt,value
2024-03-24T00:00:45.428Z,83.8682
2024-03-24T00:01:50.321Z,84.6311
2024-03-24T00:02:55.106Z,82.6444
2024-03-24T00:04:00.033Z,83.0381
2024-03-24T00:05:04.884Z,82.0996
2024-03-24T00:06:09.666Z,83.3143
2024-03-24T00:07:14.530Z,82.9847
2024-03-24T00:08:19.309Z,82.8183
2024-03-24T00:09:24.205Z,82.5452
2024-03-24T00:10:29.246Z,83.6988
2024-03-24T00:11:33.999Z,82.6444
2024-03-24T00:12:38.778Z,81.9806
2024-03-24T00:13:43.656Z,82.0508
2024-03-24T00:14:48.511Z,83.2364
2024-03-24T00:15:53.254Z,82.1912
2024-03-24T00:16:58.049Z,83.9002
2024-03-24T00:18:02.862Z,81.4359
2024-03-24T00:19:07.748Z,83.0014
2024-03-24T00:20:12.513Z,82.0996
2024-03-24T00:21:17.444Z,81.6236
2024-03-24T00:22:22.391Z,81.6785
2024-03-24T00:23:27.161Z,81.3489
2024-03-24T00:24:31.931Z,80.5264
2024-03-24T00:25:36.745Z,80.8362
2024-03-24T00:26:41.523Z,80.4074
2024-03-24T00:27:46.359Z,79.6277
2024-03-24T00:28:51.197Z,82.0691
2024-03-24T00:29:55.989Z,81.3825
2024-03-24T00:31:00.840Z,83.5752
2024-03-24T00:32:05.738Z,80.9842
2024-03-24T00:33:10.703Z,81.0651
2024-03-24T00:34:15.667Z,80.3876
2024-03-24T00:35:20.416Z,80.0870
2024-03-24T00:36:25.277Z,80.6821
2024-03-24T00:37:30.224Z,80.3235
2024-03-24T00:38:35.206Z,81.6754
2024-03-24T00:39:42.501Z,81.6846
2024-03-24T00:40:50.702Z,81.3901
2024-03-24T00:41:55.515Z,81.5778
2024-03-24T00:43:00.480Z,82.1683
2024-03-24T00:44:05.391Z,82.3606
2024-03-24T00:45:10.167Z,81.8540
2024-03-24T00:46:15.027Z,81.9440
2024-03-24T00:47:19.974Z,82.2751
2024-03-24T00:48:24.736Z,83.6439
2024-03-24T00:49:29.621Z,83.1891
2024-03-24T00:50:34.550Z,82.6368
2024-03-24T00:51:39.309Z,81.0788
2024-03-24T00:52:44.133Z,81.6159
2024-03-24T00:53:48.922Z,81.5229
2024-03-24T00:54:53.740Z,82.2278
2024-03-24T00:55:58.494Z,82.7512
2024-03-24T00:57:03.331Z,82.0905
2024-03-24T00:58:08.136Z,82.3240
2024-03-24T00:59:12.933Z,83.4180
2024-03-24T01:00:17.734Z,83.8636
2024-03-24T01:01:22.512Z,83.5920
2024-03-24T01:02:27.320Z,84.0497
2024-03-24T01:03:32.107Z,83.2120
2024-03-24T01:04:36.858Z,83.5187
2024-03-24T01:05:41.736Z,84.6235
2024-03-24T01:06:46.675Z,84.0223
2024-03-24T01:07:51.460Z,84.1505
2024-03-24T01:08:56.304Z,84.2557
2024-03-24T01:10:01.076Z,84.2939
2024-03-24T01:11:05.896Z,84.4022
2024-03-24T01:12:10.855Z,83.9231
2024-03-24T01:13:15.610Z,84.8417
2024-03-24T01:14:20.464Z,85.0538
2024-03-24T01:15:25.278Z,84.6326
2024-03-24T01:16:30.053Z,85.7893
2024-03-24T01:17:34.847Z,85.8579
2024-03-24T01:18:39.668Z,85.5070
2024-03-24T01:19:44.463Z,85.0767
2024-03-24T01:20:49.317Z,85.2506
2024-03-24T01:21:54.238Z,85.7252
2024-03-24T01:22:58.978Z,85.9007
2024-03-24T01:24:03.854Z,86.1616
2024-03-24T01:25:08.822Z,86.2837
2024-03-24T01:26:13.557Z,85.8045
2024-03-24T01:27:18.382Z,86.0044
2024-03-24T01:28:23.341Z,86.8711
2024-03-24T01:29:28.256Z,86.1921
2024-03-24T01:30:33.029Z,86.5766
2024-03-24T01:31:37.894Z,86.5309
2024-03-24T01:32:42.698Z,86.1646
2024-03-24T01:33:47.499Z,85.7908
2024-03-24T01:34:52.292Z,85.8900
2024-03-24T01:35:57.108Z,85.8900
2024-03-24T01:37:02.081Z,86.8788
2024-03-24T01:38:07.028Z,87.3152
2024-03-24T01:39:11.961Z,87.6951
2024-03-24T01:40:16.735Z,87.8904
2024-03-24T01:41:21.605Z,87.6936
2024-03-24T01:42:26.507Z,87.2587
2024-03-24T01:43:31.305Z,87.7440
2024-03-24T01:44:36.067Z,88.4077
2024-03-24T01:45:40.878Z,87.0130
2024-03-24T01:46:45.744Z,88.3589
2024-03-24T01:47:50.520Z,88.2383
2024-03-24T01:48:55.335Z,88.8792
2024-03-24T01:50:00.232Z,88.6778
2024-03-24T01:51:04.947Z,89.0120
2024-03-24T01:52:09.922Z,90.0008
2024-03-24T01:53:14.853Z,89.5979
2024-03-24T01:54:19.637Z,89.5354
2024-03-24T01:55:24.472Z,89.5247
2024-03-24T01:56:29.283Z,90.1656
2024-03-24T01:57:34.105Z,89.9428
2024-03-24T01:58:38.886Z,90.2617
2024-03-24T01:59:43.668Z,90.6920
2024-03-24T02:00:48.590Z,90.2113
2024-03-24T02:01:53.586Z,89.8604
2024-03-24T02:02:58.520Z,89.9702
2024-03-24T02:04:03.465Z,90.1884
2024-03-24T02:05:08.416Z,90.0237
2024-03-24T02:06:13.199Z,90.3212
2024-03-24T02:07:18.009Z,90.8766
2024-03-24T02:08:22.993Z,90.7011
2024-03-24T02:09:27.958Z,90.4585
2024-03-24T02:10:32.692Z,91.1360
2024-03-24T02:11:37.526Z,91.3466
2024-03-24T02:12:42.499Z,91.2429
2024-03-24T02:13:47.476Z,91.8059
2024-03-24T02:14:52.404Z,91.0002
2024-03-24T02:15:57.201Z,91.0780
2024-03-24T02:17:02.006Z,91.0307
2024-03-24T02:18:07.010Z,91.4199
2024-03-24T02:19:11.827Z,91.2886
2024-03-24T02:20:16.646Z,91.3100
2024-03-24T02:21:21.526Z,91.6732
2024-03-24T02:22:26.288Z,91.7815
2024-03-24T02:23:31.137Z,92.0058
2024-03-24T02:24:36.087Z,92.1813
2024-03-24T02:25:40.874Z,92.1157
2024-03-24T02:26:45.710Z,92.3903
2024-03-24T02:27:50.677Z,92.3644
2024-03-24T02:28:55.548Z,92.5521
2024-03-24T02:30:00.313Z,92.5475
2024-03-24T02:31:05.204Z,92.5872
2024-03-24T02:32:10.114Z,92.5597
2024-03-24T02:33:14.920Z,92.8206
2024-03-24T02:34:19.788Z,93.3288
2024-03-24T02:35:24.674Z,93.3608
2024-03-24T02:36:29.447Z,93.1960
2024-03-24T02:37:34.376Z,92.9641
2024-03-24T02:38:39.124Z,93.1151
2024-03-24T02:39:43.939Z,93.6263
2024-03-24T02:40:49.216Z,93.5638
2024-03-24T02:41:54.053Z,93.8643
2024-03-24T02:42:58.861Z,93.9010
2024-03-24T02:44:03.795Z,93.6690
2024-03-24T02:45:08.755Z,93.5943
2024-03-24T02:46:13.780Z,93.6782
2024-03-24T02:47:18.534Z,93.7011
2024-03-24T02:48:23.296Z,93.9742
2024-03-24T02:49:28.250Z,94.1497
2024-03-24T02:50:33.039Z,94.2275
2024-03-24T02:51:37.855Z,94.0978
2024-03-24T02:52:42.823Z,94.2367
2024-03-24T02:53:47.787Z,94.2443
2024-03-24T02:54:52.719Z,94.2092
2024-03-24T02:55:57.507Z,94.0764
2024-03-24T02:57:02.392Z,93.7102
2024-03-24T02:58:07.360Z,93.8293
2024-03-24T02:59:12.093Z,94.0764
2024-03-24T03:00:16.887Z,93.9055
2024-03-24T03:01:21.857Z,94.1802
2024-03-24T03:02:26.604Z,94.2992
2024-03-24T03:03:31.450Z,94.4320
2024-03-24T03:04:36.215Z,93.9696
2024-03-24T03:05:41.053Z,94.0764
2024-03-24T03:06:45.846Z,94.1985
2024-03-24T03:07:50.659Z,93.6965
2024-03-24T03:08:55.624Z,93.5821
2024-03-24T03:10:00.576Z,94.0490
2024-03-24T03:11:05.502Z,94.0246
2024-03-24T03:12:10.269Z,93.9025
2024-03-24T03:13:15.177Z,94.5052
2024-03-24T03:14:20.075Z,94.4091
2024-03-24T03:15:24.846Z,93.7560
2024-03-24T03:16:29.700Z,93.1914
2024-03-24T03:17:34.644Z,92.9549
2024-03-24T03:18:39.447Z,92.6390
2024-03-24T03:19:44.255Z,92.8847
2024-03-24T03:20:49.200Z,92.9900
2024-03-24T03:21:54.003Z,93.2662
2024-03-24T03:22:58.822Z,93.3303
2024-03-24T03:24:03.607Z,93.8003
2024-03-24T03:25:08.463Z,93.3608
2024-03-24T03:26:13.384Z,93.3013
2024-03-24T03:27:18.323Z,92.8481
2024-03-24T03:28:23.073Z,93.4157
2024-03-24T03:29:27.946Z,93.3883
2024-03-24T03:30:32.869Z,93.5805
2024-03-24T03:31:37.654Z,93.4997
2024-03-24T03:32:42.509Z,93.6233
2024-03-24T03:33:47.445Z,93.8460
2024-03-24T03:34:52.193Z,93.9025
2024-03-24T03:35:57.084Z,94.1482
2024-03-24T03:37:02.003Z,94.2992
2024-03-24T03:38:06.771Z,94.5068
2024-03-24T03:39:11.614Z,95.0271
2024-03-24T03:40:16.557Z,95.0149
2024-03-24T03:41:21.304Z,95.2194
2024-03-24T03:42:26.192Z,95.4299
2024-03-24T03:43:31.114Z,95.1980
2024-03-24T03:44:35.881Z,95.1659
2024-03-24T03:45:40.876Z,95.2850
2024-03-24T03:46:45.689Z,95.4025
2024-03-24T03:47:50.457Z,95.3933
2024-03-24T03:48:55.627Z,95.5779
2024-03-24T03:50:00.591Z,95.7595
2024-03-24T03:51:05.541Z,95.5627
2024-03-24T03:52:10.545Z,95.5306
2024-03-24T03:53:15.465Z,95.6466
2024-03-24T03:54:20.393Z,95.6725
2024-03-24T03:55:25.187Z,95.5642
2024-03-24T03:56:30.075Z,95.7092
2024-03-24T03:57:34.887Z,95.6695
2024-03-24T03:58:39.679Z,95.5718
2024-03-24T03:59:44.555Z,95.3658
2024-03-24T04:00:49.503Z,95.2285
2024-03-24T04:01:54.306Z,94.9035
2024-03-24T04:02:59.137Z,94.7173
2024-03-24T04:04:04.007Z,94.8913
2024-03-24T04:05:08.813Z,94.9371
2024-03-24T04:06:13.685Z,94.6975
2024-03-24T04:07:18.609Z,94.8165
2024-03-24T04:08:23.451Z,94.8318
2024-03-24T04:09:28.254Z,94.9447
2024-03-24T04:10:33.148Z,95.0240
2024-03-24T04:11:37.977Z,94.9462
2024-03-24T04:12:42.708Z,95.2285
2024-03-24T04:13:47.547Z,95.1202
2024-03-24T04:14:52.454Z,95.0546
2024-03-24T04:15:57.372Z,94.8623
2024-03-24T04:17:02.294Z,94.4656
2024-03-24T04:18:07.079Z,94.4884
2024-03-24T04:19:11.941Z,94.4640
2024-03-24T04:20:16.854Z,94.4457
2024-03-24T04:21:21.677Z,94.3450
2024-03-24T04:22:26.523Z,94.1161
2024-03-24T04:23:31.403Z,93.8552
2024-03-24T04:24:36.199Z,93.8689
2024-03-24T04:25:41.000Z,93.8232
2024-03-24T04:26:45.969Z,93.6141
2024-03-24T04:27:50.764Z,93.6873
2024-03-24T04:28:55.628Z,93.6080
2024-03-24T04:30:00.510Z,94.1543
2024-03-24T04:31:05.376Z,94.2824
2024-03-24T04:32:10.151Z,94.0932
2024-03-24T04:33:15.084Z,94.2122
2024-03-24T04:34:19.867Z,94.0795
2024-03-24T04:35:24.780Z,94.1665
2024-03-24T04:36:29.627Z,94.2046
2024-03-24T04:37:34.405Z,94.5480
2024-03-24T04:38:39.296Z,94.6899
2024-03-24T04:39:44.218Z,94.7814
2024-03-24T04:40:49.226Z,94.9859
2024-03-24T04:41:54.187Z,94.9737
2024-03-24T04:42:58.966Z,94.9950
2024-03-24T04:44:03.778Z,94.8394
2024-03-24T04:45:08.568Z,94.8592
2024-03-24T04:46:13.396Z,94.7616
2024-03-24T04:47:18.344Z,95.1888
2024-03-24T04:48:23.314Z,95.1507
2024-03-24T04:49:28.269Z,95.3079
2024-03-24T04:50:33.051Z,95.4620
2024-03-24T04:51:37.864Z,95.5505
2024-03-24T04:52:45.459Z,95.5734
2024-03-24T04:53:50.645Z,95.7061
2024-03-24T04:54:55.696Z,95.8755
2024-03-24T04:56:00.587Z,95.6451
2024-03-24T04:57:05.537Z,95.4940
2024-03-24T04:58:10.317Z,95.6695
2024-03-24T04:59:15.141Z,95.8419
2024-03-24T05:00:20.131Z,95.8007
2024-03-24T05:01:25.066Z,95.6542
2024-03-24T05:02:30.055Z,95.4208
2024-03-24T05:03:35.004Z,95.2941
2024-03-24T05:04:39.944Z,94.6563
2024-03-24T05:05:44.845Z,95.1019
2024-03-24T05:06:49.659Z,95.4345
2024-03-24T05:07:54.505Z,95.4070
2024-03-24T05:08:59.438Z,95.6222
2024-03-24T05:10:04.229Z,95.9152
2024-03-24T05:11:09.076Z,95.9670
2024-03-24T05:12:13.998Z,96.1547
2024-03-24T05:13:18.782Z,96.3546
2024-03-24T05:14:23.642Z,96.4004
2024-03-24T05:15:28.513Z,96.4981
2024-03-24T05:16:33.290Z,96.5835
2024-03-24T05:17:38.214Z,96.6674
2024-03-24T05:18:43.033Z,96.6155
2024-03-24T05:19:47.828Z,96.6384
2024-03-24T05:20:52.766Z,96.5988
2024-03-24T05:21:57.663Z,96.6583
2024-03-24T05:23:02.495Z,96.5835
2024-03-24T05:24:07.250Z,96.6262
2024-03-24T05:25:12.064Z,96.6842
2024-03-24T05:26:16.928Z,96.7895
2024-03-24T05:27:21.889Z,96.9039
2024-03-24T05:28:27.093Z,96.9467
2024-03-24T05:29:35.233Z,96.8231
2024-03-24T05:30:40.025Z,96.6567
2024-03-24T05:31:44.964Z,96.6903
2024-03-24T05:32:49.886Z,96.6674
2024-03-24T05:33:54.859Z,96.6766
2024-03-24T05:34:59.817Z,96.6339
2024-03-24T05:36:04.597Z,96.6445
2024-03-24T05:37:09.402Z,96.5606
2024-03-24T05:38:14.211Z,96.6064
2024-03-24T05:39:18.999Z,96.5072
2024-03-24T05:40:23.990Z,96.5072
2024-03-24T05:41:28.935Z,96.5835
2024-03-24T05:42:33.708Z,96.5164
2024-03-24T05:43:38.510Z,96.3424
2024-03-24T05:44:43.318Z,96.1761
2024-03-24T05:45:48.108Z,96.2509
2024-03-24T05:46:52.909Z,96.1913
2024-03-24T05:47:57.722Z,96.2264
2024-03-24T05:49:02.520Z,96.2493
2024-03-24T05:50:07.325Z,96.3653
2024-03-24T05:51:12.279Z,96.5057
2024-03-24T05:52:19.027Z,96.4935
2024-03-24T05:53:24.978Z,96.5026
2024-03-24T05:54:29.732Z,95.8846
2024-03-24T05:55:34.636Z,95.9442
2024-03-24T05:56:39.413Z,96.0159
2024-03-24T05:57:44.303Z,95.8144
2024-03-24T05:58:49.157Z,95.6725
2024-03-24T05:59:53.942Z,95.6878
2024-03-24T06:00:58.823Z,95.4482
2024-03-24T06:02:03.785Z,95.4391
2024-03-24T06:03:08.546Z,95.5352
2024-03-24T06:04:13.449Z,95.0408
2024-03-24T06:05:18.306Z,94.9493
2024-03-24T06:06:23.087Z,94.7127
2024-03-24T06:07:27.955Z,94.7524
2024-03-24T06:08:32.870Z,94.4793
2024-03-24T06:09:37.653Z,94.4060
2024-03-24T06:10:42.548Z,93.8613
2024-03-24T06:11:47.419Z,93.8476
2024-03-24T06:12:52.187Z,93.6858
2024-03-24T06:13:57.084Z,93.9849
2024-03-24T06:15:01.903Z,94.0841
2024-03-24T06:16:06.670Z,93.1426
2024-03-24T06:17:11.456Z,92.8908
2024-03-24T06:18:16.307Z,92.8344
2024-03-24T06:19:21.110Z,92.7108
2024-03-24T06:20:25.905Z,93.1273
2024-03-24T06:21:30.671Z,92.9488
2024-03-24T06:22:35.486Z,93.0678
2024-03-24T06:23:40.439Z,93.1319
2024-03-24T06:24:45.351Z,92.3537
2024-03-24T06:25:50.139Z,92.0394
2024-03-24T06:26:55.003Z,91.5892
2024-03-24T06:27:59.926Z,90.6645
2024-03-24T06:29:04.745Z,90.3868
2024-03-24T06:30:09.565Z,90.7027
2024-03-24T06:31:14.463Z,89.8955
2024-03-24T06:32:19.267Z,90.0069
2024-03-24T06:33:24.144Z,89.5247
2024-03-24T06:34:29.083Z,89.7353
2024-03-24T06:35:33.835Z,90.2129
2024-03-24T06:36:38.695Z,88.8701
2024-03-24T06:37:43.476Z,89.0318
2024-03-24T06:38:48.285Z,89.6941
2024-03-24T06:39:53.248Z,89.7322
2024-03-24T06:40:58.034Z,90.1472
2024-03-24T06:42:02.835Z,89.8329
2024-03-24T06:43:07.664Z,89.3004
2024-03-24T06:44:12.454Z,89.3370
2024-03-24T06:45:17.407Z,89.3431
2024-03-24T06:46:22.370Z,89.3339
2024-03-24T06:47:27.293Z,88.2628
2024-03-24T06:48:32.091Z,88.1102
2024-03-24T06:49:36.921Z,88.4306
2024-03-24T06:50:41.828Z,87.9133
2024-03-24T06:51:46.660Z,87.3365
2024-03-24T06:52:51.480Z,88.1102
2024-03-24T06:53:56.375Z,88.4581
2024-03-24T06:55:01.182Z,88.5863
2024-03-24T06:56:06.038Z,88.5649
2024-03-24T06:57:10.998Z,89.3111
2024-03-24T06:58:15.821Z,88.1987
2024-03-24T06:59:20.594Z,88.0690
2024-03-24T07:00:25.403Z,88.5054
2024-03-24T07:01:30.199Z,88.6183
2024-03-24T07:02:35.168Z,88.1560
2024-03-24T07:03:40.130Z,88.4581
2024-03-24T07:04:45.092Z,89.1096
2024-03-24T07:05:50.061Z,89.1325
2024-03-24T07:06:55.009Z,89.4102
2024-03-24T07:07:59.969Z,89.4652
2024-03-24T07:09:04.934Z,89.1676
2024-03-24T07:10:09.867Z,88.8609
2024-03-24T07:11:14.641Z,88.6274
2024-03-24T07:12:19.492Z,89.5079
2024-03-24T07:13:24.498Z,89.0120
2024-03-24T07:14:29.215Z,88.7465
2024-03-24T07:15:34.055Z,87.8950
2024-03-24T07:16:38.961Z,87.5029
2024-03-24T07:17:43.736Z,87.8721
2024-03-24T07:18:48.610Z,86.0746
2024-03-24T07:19:53.546Z,86.7460
2024-03-24T07:20:58.306Z,85.8396
2024-03-24T07:22:03.136Z,84.7242
2024-03-24T07:23:08.086Z,85.4826
2024-03-24T07:24:12.862Z,84.1428
2024-03-24T07:25:17.657Z,83.7842
2024-03-24T07:26:24.921Z,85.0217
2024-03-24T07:27:30.230Z,83.7308
2024-03-24T07:28:34.976Z,84.3351
2024-03-24T07:29:39.840Z,83.9643
2024-03-24T07:30:44.789Z,83.6851
2024-03-24T07:31:49.726Z,85.1347
2024-03-24T07:32:54.517Z,84.8844
2024-03-24T07:33:59.337Z,84.2557
2024-03-24T07:35:04.289Z,84.8569
2024-03-24T07:36:09.233Z,85.2277
2024-03-24T07:37:14.023Z,85.0294
2024-03-24T07:38:18.844Z,84.9241
2024-03-24T07:39:23.822Z,84.2298
2024-03-24T07:40:28.767Z,82.3835
2024-03-24T07:41:33.748Z,81.6419
2024-03-24T07:42:39.784Z,82.9160
2024-03-24T07:43:45.546Z,81.5000
2024-03-24T07:44:50.351Z,81.5381
2024-03-24T07:45:55.158Z,81.9989
2024-03-24T07:46:59.922Z,82.7405
2024-03-24T07:48:04.764Z,81.5290
2024-03-24T07:49:09.714Z,82.8183
2024-03-24T07:50:14.481Z,82.7863
2024-03-24T07:51:19.342Z,82.4537
2024-03-24T07:52:24.279Z,82.4109
2024-03-24T07:53:29.027Z,83.1861
2024-03-24T07:54:33.910Z,83.2868
2024-03-24T07:55:38.824Z,82.0188
2024-03-24T07:56:43.589Z,81.9898
2024-03-24T07:57:48.442Z,81.0025
2024-03-24T07:58:53.382Z,82.1286
2024-03-24T07:59:58.266Z,82.3575
2024-03-24T08:01:03.063Z,81.7929
2024-03-24T08:02:07.942Z,81.2863
2024-03-24T08:03:12.843Z,81.6144
2024-03-24T08:04:17.696Z,82.5574
2024-03-24T08:05:22.516Z,82.4399
2024-03-24T08:06:27.412Z,81.3870
2024-03-24T08:07:32.260Z,80.6439
2024-03-24T08:08:37.055Z,80.2090
2024-03-24T08:09:41.846Z,78.5626
2024-03-24T08:10:46.695Z,76.9650
2024-03-24T08:11:51.622Z,76.1120
2024-03-24T08:12:56.405Z,76.1639
2024-03-24T08:14:01.230Z,75.8572
2024-03-24T08:15:06.190Z,75.6268
2024-03-24T08:16:10.956Z,74.6731
2024-03-24T08:17:15.773Z,76.8231
2024-03-24T08:18:20.758Z,76.4065
2024-03-24T08:19:25.565Z,77.1618
2024-03-24T08:20:30.437Z,79.0249
2024-03-24T08:21:35.328Z,76.4614
2024-03-24T08:22:40.120Z,75.6420
2024-03-24T08:23:44.935Z,75.3155
2024-03-24T08:24:49.885Z,76.2722
2024-03-24T08:25:54.712Z,76.0296
2024-03-24T08:26:59.470Z,76.1166
2024-03-24T08:28:04.429Z,76.8780
2024-03-24T08:29:09.206Z,77.5860
2024-03-24T08:30:14.036Z,74.4137
2024-03-24T08:31:18.991Z,73.4661
2024-03-24T08:32:23.957Z,74.6746
2024-03-24T08:33:28.738Z,71.8181
2024-03-24T08:34:33.557Z,71.4366
2024-03-24T08:35:38.480Z,71.6533
2024-03-24T08:36:43.273Z,70.2419
2024-03-24T08:37:48.114Z,71.7906
2024-03-24T08:38:53.058Z,73.5378
2024-03-24T08:39:57.821Z,73.9910
2024-03-24T08:41:02.695Z,75.0225
2024-03-24T08:42:07.582Z,74.0688
2024-03-24T08:43:12.368Z,73.4524
2024-03-24T08:44:17.138Z,73.6126
2024-03-24T08:45:21.954Z,73.3593
2024-03-24T08:46:26.881Z,73.6584
2024-03-24T08:47:31.691Z,73.9422
2024-03-24T08:48:42.043Z,72.7642
2024-03-24T08:49:47.174Z,72.9671
2024-03-24T08:50:52.201Z,72.3400
2024-03-24T08:51:57.067Z,72.4727
2024-03-24T08:53:01.953Z,73.4020
2024-03-24T08:54:06.755Z,75.6786
2024-03-24T08:55:11.673Z,75.6512
2024-03-24T08:56:16.516Z,75.0591
2024-03-24T08:57:21.334Z,75.9518
2024-03-24T08:58:26.180Z,76.6888
2024-03-24T08:59:30.969Z,76.6430
2024-03-24T09:00:35.747Z,75.6786
2024-03-24T09:01:41.345Z,76.0800
2024-03-24T09:02:46.265Z,75.8373
2024-03-24T09:03:51.049Z,76.1715
2024-03-24T09:04:55.945Z,75.8618
2024-03-24T09:06:00.846Z,74.3725
2024-03-24T09:07:05.656Z,77.1710
2024-03-24T09:08:10.410Z,73.3791
2024-03-24T09:09:15.250Z,73.6614
2024-03-24T09:10:20.021Z,75.8557
2024-03-24T09:11:24.805Z,71.1162
2024-03-24T09:12:29.591Z,71.2718
2024-03-24T09:13:34.356Z,69.8344
2024-03-24T09:14:39.309Z,69.5964
2024-03-24T09:15:44.247Z,68.4154
2024-03-24T09:16:49.030Z,69.1630
2024-03-24T09:17:53.865Z,68.3848
2024-03-24T09:18:58.800Z,67.7150
2024-03-24T09:20:03.580Z,67.8843
2024-03-24T09:21:08.695Z,65.9495
2024-03-24T09:22:13.503Z,63.9307
2024-03-24T09:23:18.264Z,65.9525
2024-03-24T09:24:23.074Z,63.3799
2024-03-24T09:25:27.939Z,63.8468
2024-03-24T09:26:32.733Z,62.8306
2024-03-24T09:27:37.531Z,60.3784
2024-03-24T09:28:42.519Z,59.0768
2024-03-24T09:29:47.511Z,58.7106
2024-03-24T09:30:52.437Z,59.2020
2024-03-24T09:31:57.391Z,58.6114
2024-03-24T09:33:02.196Z,56.8948
2024-03-24T09:34:06.973Z,59.0768
2024-03-24T09:35:13.553Z,58.4771
2024-03-24T09:36:18.712Z,55.6497
2024-03-24T09:37:23.535Z,59.5712
2024-03-24T09:38:30.853Z,62.4506
2024-03-24T09:39:37.534Z,62.9175
2024-03-24T09:40:42.334Z,58.6114
2024-03-24T09:41:47.143Z,64.5197
2024-03-24T09:42:52.113Z,65.6550
2024-03-24T09:43:56.883Z,64.3198
2024-03-24T09:45:01.662Z,60.8484
2024-03-24T09:46:06.452Z,59.8840
2024-03-24T09:47:11.314Z,62.9236
2024-03-24T09:48:16.284Z,64.2863
2024-03-24T09:49:21.227Z,64.5762
2024-03-24T09:50:26.000Z,64.8814
2024-03-24T09:51:30.832Z,57.2061
2024-03-24T09:52:35.762Z,59.0631
2024-03-24T09:53:40.560Z,56.5591
2024-03-24T09:54:45.411Z,58.7991
2024-03-24T09:55:50.318Z,56.1257
2024-03-24T09:56:55.108Z,56.7330
2024-03-24T09:58:07.017Z,58.5550
2024-03-24T09:59:10.727Z,58.3627
2024-03-24T10:00:15.546Z,59.5590
2024-03-24T10:01:20.347Z,58.7213
2024-03-24T10:02:25.232Z,52.3613
2024-03-24T10:03:30.003Z,57.0947
2024-03-24T10:04:34.788Z,55.4330
2024-03-24T10:05:39.714Z,56.4599
2024-03-24T10:06:44.500Z,58.7167
2024-03-24T10:07:49.322Z,60.3235
2024-03-24T10:08:54.102Z,61.7014
2024-03-24T10:09:58.996Z,60.3998
2024-03-24T10:11:03.983Z,61.0040
2024-03-24T10:12:08.743Z,62.5101
2024-03-24T10:13:13.565Z,62.3514
2024-03-24T10:14:18.515Z,62.7863
2024-03-24T10:15:23.474Z,61.8143
2024-03-24T10:16:28.485Z,61.9989
2024-03-24T10:17:33.387Z,63.2059
2024-03-24T10:18:38.373Z,63.1876
2024-03-24T10:19:43.277Z,62.9465
2024-03-24T10:20:48.055Z,63.5218
2024-03-24T10:21:52.941Z,65.6245
2024-03-24T10:22:57.843Z,66.2699
2024-03-24T10:24:02.704Z,68.5588
2024-03-24T10:25:07.491Z,68.8731
2024-03-24T10:26:12.261Z,69.7932
2024-03-24T10:27:17.091Z,71.0658
2024-03-24T10:28:22.036Z,71.7983
2024-03-24T10:29:26.967Z,71.5526
2024-03-24T10:30:31.765Z,71.5206
2024-03-24T10:31:36.597Z,72.2149
2024-03-24T10:32:41.525Z,71.7311
2024-03-24T10:33:46.316Z,72.1523
2024-03-24T10:34:51.162Z,70.5501
2024-03-24T10:35:56.111Z,65.8015
2024-03-24T10:37:00.909Z,61.8250
2024-03-24T10:38:05.711Z,65.5589
2024-03-24T10:39:10.669Z,64.9088
2024-03-24T10:40:15.424Z,66.6911
2024-03-24T10:41:20.209Z,66.1418
2024-03-24T10:42:25.041Z,60.7660
2024-03-24T10:43:29.879Z,58.2071
2024-03-24T10:44:34.664Z,59.7269
2024-03-24T10:45:39.477Z,63.0182
2024-03-24T10:46:44.431Z,65.2613
2024-03-24T10:47:49.230Z,61.1841
2024-03-24T10:48:54.046Z,61.2345
2024-03-24T10:49:58.999Z,62.6810
2024-03-24T10:51:03.794Z,60.3098
2024-03-24T10:52:08.681Z,59.3851
2024-03-24T10:53:13.446Z,59.0005
2024-03-24T10:54:18.222Z,58.7304
2024-03-24T10:55:23.154Z,57.4243
2024-03-24T10:56:28.135Z,56.1563
2024-03-24T10:57:32.917Z,57.5067
2024-03-24T10:58:37.711Z,56.0250
2024-03-24T10:59:42.675Z,59.8154
2024-03-24T11:00:47.454Z,62.8962
2024-03-24T11:01:52.290Z,64.7303
2024-03-24T11:02:57.211Z,65.3574
2024-03-24T11:04:02.014Z,67.6417
2024-03-24T11:05:06.826Z,70.6050
2024-03-24T11:06:14.769Z,71.4870
2024-03-24T11:07:20.894Z,73.7682
2024-03-24T11:08:25.810Z,76.9039
2024-03-24T11:09:30.607Z,78.1033
2024-03-24T11:10:35.461Z,80.3006
2024-03-24T11:11:40.365Z,81.0849
2024-03-24T11:12:45.140Z,83.5615
2024-03-24T11:13:50.016Z,84.7562
2024-03-24T11:14:54.943Z,85.7847
2024-03-24T11:15:59.705Z,84.6647
2024-03-24T11:17:04.596Z,83.9460
2024-03-24T11:18:09.499Z,81.6785
2024-03-24T11:19:14.282Z,82.8244
2024-03-24T11:20:19.134Z,80.8423
2024-03-24T11:21:24.086Z,79.7253
2024-03-24T11:22:28.869Z,76.9009
2024-03-24T11:23:33.707Z,77.4212
2024-03-24T11:24:38.610Z,78.2513
2024-03-24T11:25:43.452Z,75.4482
2024-03-24T11:26:48.279Z,75.8831
2024-03-24T11:27:53.242Z,76.1456
2024-03-24T11:28:58.184Z,74.3984
2024-03-24T11:30:03.179Z,75.9380
2024-03-24T11:31:08.117Z,71.2810
2024-03-24T11:32:13.131Z,70.6188
2024-03-24T11:33:18.013Z,71.5740
2024-03-24T11:34:22.956Z,73.5576
2024-03-24T11:35:27.743Z,75.4635
2024-03-24T11:36:32.650Z,76.2463
2024-03-24T11:37:37.616Z,75.6786
2024-03-24T11:38:42.403Z,73.8125
2024-03-24T11:39:47.191Z,68.6961
2024-03-24T11:40:53.486Z,70.0175
2024-03-24T11:41:58.415Z,69.0394
2024-03-24T11:43:03.378Z,64.9134
2024-03-24T11:44:08.295Z,67.0741
2024-03-24T11:45:13.278Z,64.4511
2024-03-24T11:46:18.055Z,63.0961
2024-03-24T11:47:22.898Z,61.8982
2024-03-24T11:48:27.807Z,62.3011
2024-03-24T11:49:32.595Z,62.3926
2024-03-24T11:50:37.445Z,62.0890
2024-03-24T11:51:42.384Z,60.6073
2024-03-24T11:52:49.362Z,61.6190
2024-03-24T11:53:55.817Z,60.9506
2024-03-24T11:55:00.642Z,61.1475
2024-03-24T11:56:05.441Z,62.9511
2024-03-24T11:57:10.400Z,57.9049
2024-03-24T11:58:15.225Z,57.6959
2024-03-24T11:59:19.998Z,59.0875
2024-03-24T12:00:24.962Z,57.8241
2024-03-24T12:01:29.927Z,58.5458
2024-03-24T12:02:34.876Z,62.0722
2024-03-24T12:03:39.849Z,60.7034
2024-03-24T12:04:44.742Z,62.9816
2024-03-24T12:05:49.552Z,62.9404
2024-03-24T12:06:54.418Z,62.2599
2024-03-24T12:07:59.325Z,64.5655
2024-03-24T12:09:04.133Z,62.8397
2024-03-24T12:10:08.951Z,62.6673
2024-03-24T12:11:13.842Z,62.8458
2024-03-24T12:12:18.657Z,60.7080
2024-03-24T12:13:23.519Z,58.8617
2024-03-24T12:14:28.403Z,60.2350
2024-03-24T12:15:33.221Z,59.6780
2024-03-24T12:16:38.080Z,60.7355
2024-03-24T12:17:42.994Z,61.3260
2024-03-24T12:18:47.790Z,58.8540
2024-03-24T12:19:52.541Z,59.4064
2024-03-24T12:20:57.339Z,54.8928
2024-03-24T12:22:02.237Z,51.7113
2024-03-24T12:23:07.199Z,52.5460
2024-03-24T12:24:12.097Z,53.3196
2024-03-24T12:25:16.914Z,54.8257
2024-03-24T12:26:21.742Z,56.4813
2024-03-24T12:27:26.663Z,56.8521
2024-03-24T12:28:31.608Z,53.3471
2024-03-24T12:29:36.405Z,53.0480
2024-03-24T12:30:41.216Z,51.0948
2024-03-24T12:31:46.043Z,52.6787
2024-03-24T12:32:50.881Z,50.1884
2024-03-24T12:33:55.780Z,54.9020
2024-03-24T12:35:00.575Z,56.6751
2024-03-24T12:36:05.430Z,57.4212
2024-03-24T12:37:10.365Z,57.9293
2024-03-24T12:38:15.183Z,57.3892
2024-03-24T12:39:20.005Z,57.4624
2024-03-24T12:40:24.957Z,57.3007
2024-03-24T12:41:29.923Z,59.3118
2024-03-24T12:42:34.865Z,59.6048
2024-03-24T12:43:39.841Z,58.7106
2024-03-24T12:44:44.791Z,57.6318
2024-03-24T12:45:49.767Z,55.7717
2024-03-24T12:46:54.710Z,52.4453
2024-03-24T12:47:59.506Z,51.8395
2024-03-24T12:49:04.325Z,53.3364
2024-03-24T12:50:17.641Z,52.6040
2024-03-24T12:51:19.960Z,53.2540
2024-03-24T12:52:24.776Z,55.9289
2024-03-24T12:53:29.596Z,51.9356
2024-03-24T12:54:34.491Z,51.4015
2024-03-24T12:55:39.308Z,51.7983
2024-03-24T12:56:44.139Z,49.7398
2024-03-24T12:57:49.092Z,53.5760
2024-03-24T12:58:56.242Z,51.6655
2024-03-24T13:00:02.874Z,51.2901
2024-03-24T13:01:07.640Z,50.8843
2024-03-24T13:02:12.487Z,50.5867
2024-03-24T13:03:17.339Z,50.9117
2024-03-24T13:04:22.123Z,53.8643
2024-03-24T13:05:27.026Z,48.3970